sensor_id;sensor_type;location;lat;lon;timestamp;pressure;altitude;pressure_sealevel;temperature;humidity
71504;BME280;59323;50.874;7.028;2022-12-18T00:01:19;102604.84;;;-6.00;91.75
71504;BME280;59323;50.874;7.028;2022-12-18T00:03:45;102601.81;;;-6.03;91.99
71504;BME280;59323;50.874;7.028;2022-12-18T00:06:11;102602.22;;;-6.07;92.10
71504;BME280;59323;50.874;7.028;2022-12-18T00:08:37;102611.78;;;-6.05;91.98
71504;BME280;59323;50.874;7.028;2022-12-18T00:11:07;102605.88;;;-6.08;92.40
71504;BME280;59323;50.874;7.028;2022-12-18T00:13:34;102605.47;;;-6.11;92.63
71504;BME280;59323;50.874;7.028;2022-12-18T00:16:04;102605.47;;;-6.11;92.43
71504;BME280;59323;50.874;7.028;2022-12-18T00:18:30;102610.16;;;-6.13;92.12
71504;BME280;59323;50.874;7.028;2022-12-18T00:20:59;102619.13;;;-6.14;92.26
71504;BME280;59323;50.874;7.028;2022-12-18T00:23:25;102610.59;;;-6.16;92.80
71504;BME280;59323;50.874;7.028;2022-12-18T00:25:51;102605.91;;;-6.14;91.90
71504;BME280;59323;50.874;7.028;2022-12-18T00:28:16;102603.47;;;-6.16;91.80
71504;BME280;59323;50.874;7.028;2022-12-18T00:30:42;102607.13;;;-6.17;91.97
71504;BME280;59323;50.874;7.028;2022-12-18T00:33:07;102615.28;;;-6.18;92.56
71504;BME280;59323;50.874;7.028;2022-12-18T00:35:32;102613.66;;;-6.19;92.57
71504;BME280;59323;50.874;7.028;2022-12-18T00:37:57;102624.44;;;-6.21;92.75
71504;BME280;59323;50.874;7.028;2022-12-18T00:40:23;102623.00;;;-6.23;92.68
71504;BME280;59323;50.874;7.028;2022-12-18T00:42:48;102630.34;;;-6.25;92.88
71504;BME280;59323;50.874;7.028;2022-12-18T00:45:28;102631.34;;;-6.26;92.55
71504;BME280;59323;50.874;7.028;2022-12-18T00:47:56;102626.88;;;-6.26;92.74
71504;BME280;59323;50.874;7.028;2022-12-18T00:50:23;102621.19;;;-6.23;92.44
71504;BME280;59323;50.874;7.028;2022-12-18T00:52:49;102615.69;;;-6.21;93.24
71504;BME280;59323;50.874;7.028;2022-12-18T00:55:14;102613.44;;;-6.24;93.40
71504;BME280;59323;50.874;7.028;2022-12-18T00:57:40;102606.13;;;-6.29;93.04
71504;BME280;59323;50.874;7.028;2022-12-18T01:00:08;102598.19;;;-6.29;93.48
71504;BME280;59323;50.874;7.028;2022-12-18T01:02:34;102598.41;;;-6.30;93.85
71504;BME280;59323;50.874;7.028;2022-12-18T01:05:00;102606.13;;;-6.29;93.67
71504;BME280;59323;50.874;7.028;2022-12-18T01:07:26;102607.16;;;-6.30;93.51
71504;BME280;59323;50.874;7.028;2022-12-18T01:09:51;102605.53;;;-6.31;93.33
71504;BME280;59323;50.874;7.028;2022-12-18T01:12:16;102599.22;;;-6.30;93.20
71504;BME280;59323;50.874;7.028;2022-12-18T01:14:42;102611.63;;;-6.30;93.86
71504;BME280;59323;50.874;7.028;2022-12-18T01:17:07;102598.00;;;-6.34;93.40
71504;BME280;59323;50.874;7.028;2022-12-18T01:19:32;102601.47;;;-6.33;93.37
71504;BME280;59323;50.874;7.028;2022-12-18T01:21:58;102593.72;;;-6.35;93.46
71504;BME280;59323;50.874;7.028;2022-12-18T01:24:24;102592.91;;;-6.35;94.20
71504;BME280;59323;50.874;7.028;2022-12-18T01:26:49;102610.22;;;-6.33;93.98
71504;BME280;59323;50.874;7.028;2022-12-18T01:29:14;102602.69;;;-6.36;93.00
71504;BME280;59323;50.874;7.028;2022-12-18T01:31:41;102605.53;;;-6.37;93.12
71504;BME280;59323;50.874;7.028;2022-12-18T01:34:07;102603.50;;;-6.35;92.52
71504;BME280;59323;50.874;7.028;2022-12-18T01:36:37;102603.69;;;-6.37;92.52
71504;BME280;59323;50.874;7.028;2022-12-18T01:39:08;102606.34;;;-6.37;92.89
71504;BME280;59323;50.874;7.028;2022-12-18T01:41:35;102600.25;;;-6.37;92.83
71504;BME280;59323;50.874;7.028;2022-12-18T01:50:00;102615.28;;;-6.38;93.28
71504;BME280;59323;50.874;7.028;2022-12-18T01:52:31;102609.59;;;-6.35;93.05
71504;BME280;59323;50.874;7.028;2022-12-18T01:54:57;102601.88;;;-6.36;93.21
71504;BME280;59323;50.874;7.028;2022-12-18T01:57:24;102604.72;;;-6.38;93.11
71504;BME280;59323;50.874;7.028;2022-12-18T01:59:52;102603.91;;;-6.38;93.00
71504;BME280;59323;50.874;7.028;2022-12-18T02:02:19;102597.00;;;-6.40;92.79
71504;BME280;59323;50.874;7.028;2022-12-18T02:04:49;102593.53;;;-6.40;92.43
71504;BME280;59323;50.874;7.028;2022-12-18T02:07:30;102596.38;;;-6.42;91.56
71504;BME280;59323;50.874;7.028;2022-12-18T02:10:15;102597.59;;;-6.37;91.56
71504;BME280;59323;50.874;7.028;2022-12-18T02:15:20;102599.44;;;-6.38;91.54
71504;BME280;59323;50.874;7.028;2022-12-18T02:17:56;102603.09;;;-6.32;90.99
71504;BME280;59323;50.874;7.028;2022-12-18T02:20:36;102607.56;;;-6.33;90.85
71504;BME280;59323;50.874;7.028;2022-12-18T02:28:41;102594.94;;;-6.24;90.16
71504;BME280;59323;50.874;7.028;2022-12-18T02:31:11;102603.06;;;-6.26;90.23
71504;BME280;59323;50.874;7.028;2022-12-18T02:33:40;102602.06;;;-6.31;90.62
71504;BME280;59323;50.874;7.028;2022-12-18T02:36:08;102610.00;;;-6.31;90.51
71504;BME280;59323;50.874;7.028;2022-12-18T02:38:36;102603.69;;;-6.30;91.20
71504;BME280;59323;50.874;7.028;2022-12-18T02:41:03;102600.22;;;-6.31;90.81
71504;BME280;59323;50.874;7.028;2022-12-18T02:43:29;102593.13;;;-6.30;91.00
71504;BME280;59323;50.874;7.028;2022-12-18T02:45:58;102582.94;;;-6.33;91.07
71504;BME280;59323;50.874;7.028;2022-12-18T02:48:27;102590.47;;;-6.30;91.15
71504;BME280;59323;50.874;7.028;2022-12-18T02:51:06;102587.22;;;-6.32;91.33
71504;BME280;59323;50.874;7.028;2022-12-18T02:53:45;102590.06;;;-6.34;91.42
71504;BME280;59323;50.874;7.028;2022-12-18T02:56:20;102581.53;;;-6.36;91.09
71504;BME280;59323;50.874;7.028;2022-12-18T03:01:34;102579.09;;;-6.37;91.23
71504;BME280;59323;50.874;7.028;2022-12-18T03:04:14;102594.94;;;-6.37;90.83
71504;BME280;59323;50.874;7.028;2022-12-18T03:06:49;102589.06;;;-6.40;90.95
71504;BME280;59323;50.874;7.028;2022-12-18T03:09:23;102588.03;;;-6.32;90.63
71504;BME280;59323;50.874;7.028;2022-12-18T03:11:56;102586.00;;;-6.30;90.22
71504;BME280;59323;50.874;7.028;2022-12-18T03:14:43;102584.16;;;-6.23;89.94
71504;BME280;59323;50.874;7.028;2022-12-18T03:17:13;102588.41;;;-6.22;89.77
71504;BME280;59323;50.874;7.028;2022-12-18T03:19:41;102577.44;;;-6.25;90.00
71504;BME280;59323;50.874;7.028;2022-12-18T03:22:08;102581.31;;;-6.28;90.48
71504;BME280;59323;50.874;7.028;2022-12-18T03:24:35;102570.31;;;-6.25;89.57
71504;BME280;59323;50.874;7.028;2022-12-18T03:27:06;102577.03;;;-6.22;89.74
71504;BME280;59323;50.874;7.028;2022-12-18T03:29:43;102566.03;;;-6.19;89.50
71504;BME280;59323;50.874;7.028;2022-12-18T03:32:15;102557.28;;;-6.20;89.81
71504;BME280;59323;50.874;7.028;2022-12-18T03:34:43;102561.16;;;-6.22;89.60
71504;BME280;59323;50.874;7.028;2022-12-18T03:37:11;102553.63;;;-6.25;90.19
71504;BME280;59323;50.874;7.028;2022-12-18T03:39:37;102553.03;;;-6.27;90.08
71504;BME280;59323;50.874;7.028;2022-12-18T03:50:29;102568.28;;;-6.29;89.80
71504;BME280;59323;50.874;7.028;2022-12-18T03:53:01;102566.06;;;-6.32;90.30
71504;BME280;59323;50.874;7.028;2022-12-18T03:55:33;102564.84;;;-6.30;90.22
71504;BME280;59323;50.874;7.028;2022-12-18T03:58:01;102559.75;;;-6.31;89.88
71504;BME280;59323;50.874;7.028;2022-12-18T04:00:29;102555.69;;;-6.34;89.87
71504;BME280;59323;50.874;7.028;2022-12-18T04:02:56;102555.28;;;-6.31;89.71
71504;BME280;59323;50.874;7.028;2022-12-18T04:05:25;102558.53;;;-6.35;89.58
71504;BME280;59323;50.874;7.028;2022-12-18T04:07:53;102556.50;;;-6.33;90.01
71504;BME280;59323;50.874;7.028;2022-12-18T04:10:19;102562.59;;;-6.33;89.55
71504;BME280;59323;50.874;7.028;2022-12-18T04:12:44;102545.53;;;-6.37;90.05
71504;BME280;59323;50.874;7.028;2022-12-18T04:15:11;102536.78;;;-6.37;90.25
71504;BME280;59323;50.874;7.028;2022-12-18T04:17:37;102538.81;;;-6.40;89.97
71504;BME280;59323;50.874;7.028;2022-12-18T04:20:03;102530.69;;;-6.45;90.44
71504;BME280;59323;50.874;7.028;2022-12-18T04:22:29;102540.66;;;-6.47;90.37
71504;BME280;59323;50.874;7.028;2022-12-18T04:24:54;102542.88;;;-6.44;89.72
71504;BME280;59323;50.874;7.028;2022-12-18T04:27:20;102546.97;;;-6.48;90.17
71504;BME280;59323;50.874;7.028;2022-12-18T04:29:45;102543.69;;;-6.56;91.30
71504;BME280;59323;50.874;7.028;2022-12-18T04:32:10;102545.53;;;-6.57;90.79
71504;BME280;59323;50.874;7.028;2022-12-18T04:34:36;102545.75;;;-6.65;90.94
71504;BME280;59323;50.874;7.028;2022-12-18T04:37:01;102550.22;;;-6.65;91.43
71504;BME280;59323;50.874;7.028;2022-12-18T04:39:26;102542.50;;;-6.67;91.22
71504;BME280;59323;50.874;7.028;2022-12-18T04:41:52;102545.13;;;-6.67;91.08
71504;BME280;59323;50.874;7.028;2022-12-18T04:44:17;102552.25;;;-6.67;90.96
71504;BME280;59323;50.874;7.028;2022-12-18T04:46:42;102544.72;;;-6.71;90.58
71504;BME280;59323;50.874;7.028;2022-12-18T04:49:07;102557.53;;;-6.74;90.88
71504;BME280;59323;50.874;7.028;2022-12-18T04:51:35;102548.19;;;-6.77;90.81
71504;BME280;59323;50.874;7.028;2022-12-18T04:54:00;102552.25;;;-6.81;91.30
71504;BME280;59323;50.874;7.028;2022-12-18T04:56:26;102548.59;;;-6.86;91.02
71504;BME280;59323;50.874;7.028;2022-12-18T04:58:51;102542.72;;;-6.88;90.86
71504;BME280;59323;50.874;7.028;2022-12-18T05:01:18;102546.56;;;-6.91;91.43
71504;BME280;59323;50.874;7.028;2022-12-18T05:03:44;102546.16;;;-6.94;91.12
71504;BME280;59323;50.874;7.028;2022-12-18T05:06:10;102538.66;;;-6.97;91.50
71504;BME280;59323;50.874;7.028;2022-12-18T05:08:35;102532.53;;;-6.98;91.66
71504;BME280;59323;50.874;7.028;2022-12-18T05:11:03;102523.00;;;-6.99;91.53
71504;BME280;59323;50.874;7.028;2022-12-18T05:13:29;102533.56;;;-6.99;91.33
71504;BME280;59323;50.874;7.028;2022-12-18T05:15:55;102525.84;;;-7.00;91.29
71504;BME280;59323;50.874;7.028;2022-12-18T05:18:22;102517.50;;;-7.04;91.65
71504;BME280;59323;50.874;7.028;2022-12-18T05:20:49;102511.63;;;-6.99;91.92
71504;BME280;59323;50.874;7.028;2022-12-18T05:23:14;102513.84;;;-6.96;91.95
71504;BME280;59323;50.874;7.028;2022-12-18T05:25:39;102514.47;;;-6.94;92.27
71504;BME280;59323;50.874;7.028;2022-12-18T05:28:05;102518.31;;;-6.90;92.58
71504;BME280;59323;50.874;7.028;2022-12-18T05:30:30;102530.09;;;-6.80;91.89
71504;BME280;59323;50.874;7.028;2022-12-18T05:32:55;102522.97;;;-6.79;91.74
71504;BME280;59323;50.874;7.028;2022-12-18T05:35:21;102533.97;;;-6.76;91.83
71504;BME280;59323;50.874;7.028;2022-12-18T05:37:46;102512.22;;;-6.78;92.31
71504;BME280;59323;50.874;7.028;2022-12-18T05:40:12;102530.50;;;-6.69;92.12
71504;BME280;59323;50.874;7.028;2022-12-18T05:42:37;102529.69;;;-6.70;92.49
71504;BME280;59323;50.874;7.028;2022-12-18T05:45:04;102540.03;;;-6.62;92.25
71504;BME280;59323;50.874;7.028;2022-12-18T05:47:29;102540.66;;;-6.60;92.25
71504;BME280;59323;50.874;7.028;2022-12-18T05:49:54;102542.69;;;-6.55;91.85
71504;BME280;59323;50.874;7.028;2022-12-18T05:52:20;102547.97;;;-6.55;91.55
71504;BME280;59323;50.874;7.028;2022-12-18T05:54:45;102551.81;;;-6.51;91.54
71504;BME280;59323;50.874;7.028;2022-12-18T05:57:11;102554.50;;;-6.45;91.26
71504;BME280;59323;50.874;7.028;2022-12-18T05:59:36;102555.72;;;-6.47;91.42
71504;BME280;59323;50.874;7.028;2022-12-18T06:02:01;102564.47;;;-6.47;91.24
71504;BME280;59323;50.874;7.028;2022-12-18T06:04:30;102567.28;;;-6.42;91.56
71504;BME280;59323;50.874;7.028;2022-12-18T06:06:55;102566.09;;;-6.46;91.28
71504;BME280;59323;50.874;7.028;2022-12-18T06:09:20;102570.34;;;-6.45;91.09
71504;BME280;59323;50.874;7.028;2022-12-18T06:11:46;102579.91;;;-6.44;90.88
71504;BME280;59323;50.874;7.028;2022-12-18T06:14:11;102586.41;;;-6.40;90.46
71504;BME280;59323;50.874;7.028;2022-12-18T06:16:36;102581.94;;;-6.46;90.78
71504;BME280;59323;50.874;7.028;2022-12-18T06:19:03;102581.75;;;-6.44;90.59
71504;BME280;59323;50.874;7.028;2022-12-18T06:21:30;102587.22;;;-6.52;90.85
71504;BME280;59323;50.874;7.028;2022-12-18T06:23:55;102591.06;;;-6.55;91.21
71504;BME280;59323;50.874;7.028;2022-12-18T06:26:21;102592.72;;;-6.60;91.23
71504;BME280;59323;50.874;7.028;2022-12-18T06:28:46;102588.25;;;-6.66;91.76
71504;BME280;59323;50.874;7.028;2022-12-18T06:31:12;102585.81;;;-6.68;92.21
71504;BME280;59323;50.874;7.028;2022-12-18T06:33:37;102582.94;;;-6.73;92.08
71504;BME280;59323;50.874;7.028;2022-12-18T06:36:11;102590.06;;;-6.80;91.84
71504;BME280;59323;50.874;7.028;2022-12-18T06:38:39;102581.53;;;-6.82;92.23
71504;BME280;59323;50.874;7.028;2022-12-18T06:41:17;102582.75;;;-6.85;91.92
71504;BME280;59323;50.874;7.028;2022-12-18T06:43:43;102587.00;;;-6.90;91.25
71504;BME280;59323;50.874;7.028;2022-12-18T06:46:09;102582.13;;;-6.93;92.11
71504;BME280;59323;50.874;7.028;2022-12-18T06:48:34;102581.53;;;-6.95;91.86
71504;BME280;59323;50.874;7.028;2022-12-18T06:51:00;102580.50;;;-6.94;91.76
71504;BME280;59323;50.874;7.028;2022-12-18T06:53:26;102586.81;;;-6.95;91.70
71504;BME280;59323;50.874;7.028;2022-12-18T06:55:59;102586.19;;;-6.97;91.45
71504;BME280;59323;50.874;7.028;2022-12-18T06:58:24;102579.91;;;-7.03;91.99
71504;BME280;59323;50.874;7.028;2022-12-18T07:00:49;102589.22;;;-7.07;91.71
71504;BME280;59323;50.874;7.028;2022-12-18T07:03:15;102581.09;;;-7.12;91.52
71504;BME280;59323;50.874;7.028;2022-12-18T07:05:40;102583.94;;;-7.14;92.22
71504;BME280;59323;50.874;7.028;2022-12-18T07:08:06;102581.69;;;-7.17;91.90
71504;BME280;59323;50.874;7.028;2022-12-18T07:10:31;102575.16;;;-7.21;92.24
71504;BME280;59323;50.874;7.028;2022-12-18T07:12:57;102573.34;;;-7.20;92.21
71504;BME280;59323;50.874;7.028;2022-12-18T07:15:22;102574.75;;;-7.24;92.36
71504;BME280;59323;50.874;7.028;2022-12-18T07:17:47;102581.66;;;-7.23;92.41
71504;BME280;59323;50.874;7.028;2022-12-18T07:20:12;102586.13;;;-7.24;92.99
71504;BME280;59323;50.874;7.028;2022-12-18T07:22:38;102588.78;;;-7.24;93.01
71504;BME280;59323;50.874;7.028;2022-12-18T07:25:03;102587.16;;;-7.25;92.54
71504;BME280;59323;50.874;7.028;2022-12-18T07:27:29;102578.00;;;-7.29;92.70
71504;BME280;59323;50.874;7.028;2022-12-18T07:29:54;102583.28;;;-7.29;92.61
71504;BME280;59323;50.874;7.028;2022-12-18T07:32:20;102580.63;;;-7.29;92.61
71504;BME280;59323;50.874;7.028;2022-12-18T07:34:45;102581.84;;;-7.31;92.82
71504;BME280;59323;50.874;7.028;2022-12-18T07:37:10;102571.28;;;-7.31;92.90
71504;BME280;59323;50.874;7.028;2022-12-18T07:39:35;102573.94;;;-7.31;93.18
71504;BME280;59323;50.874;7.028;2022-12-18T07:42:01;102572.09;;;-7.31;93.36
71504;BME280;59323;50.874;7.028;2022-12-18T07:44:45;102560.72;;;-7.31;93.56
71504;BME280;59323;50.874;7.028;2022-12-18T07:47:10;102560.53;;;-7.30;93.21
71504;BME280;59323;50.874;7.028;2022-12-18T07:49:35;102554.22;;;-7.29;93.51
71504;BME280;59323;50.874;7.028;2022-12-18T07:52:01;102561.94;;;-7.27;93.35
71504;BME280;59323;50.874;7.028;2022-12-18T07:54:27;102561.94;;;-7.27;93.07
71504;BME280;59323;50.874;7.028;2022-12-18T07:56:52;102568.03;;;-7.27;93.15
71504;BME280;59323;50.874;7.028;2022-12-18T07:59:18;102566.00;;;-7.25;93.56
71504;BME280;59323;50.874;7.028;2022-12-18T08:01:46;102562.38;;;-7.24;93.45
71504;BME280;59323;50.874;7.028;2022-12-18T08:04:12;102551.81;;;-7.24;93.33
71504;BME280;59323;50.874;7.028;2022-12-18T08:06:37;102545.91;;;-7.19;92.98
71504;BME280;59323;50.874;7.028;2022-12-18T08:09:02;102540.44;;;-7.18;93.23
71504;BME280;59323;50.874;7.028;2022-12-18T08:11:28;102537.41;;;-7.15;93.07
71504;BME280;59323;50.874;7.028;2022-12-18T08:13:54;102531.50;;;-7.17;93.22
71504;BME280;59323;50.874;7.028;2022-12-18T08:16:20;102540.88;;;-7.14;93.43
71504;BME280;59323;50.874;7.028;2022-12-18T08:18:46;102531.31;;;-7.09;93.25
71504;BME280;59323;50.874;7.028;2022-12-18T08:21:20;102528.47;;;-7.07;93.07
71504;BME280;59323;50.874;7.028;2022-12-18T08:23:48;102526.03;;;-7.02;93.49
71504;BME280;59323;50.874;7.028;2022-12-18T08:26:14;102531.13;;;-6.94;93.46
71504;BME280;59323;50.874;7.028;2022-12-18T08:28:40;102525.63;;;-6.92;93.66
71504;BME280;59323;50.874;7.028;2022-12-18T08:31:06;102515.06;;;-6.86;93.64
71504;BME280;59323;50.874;7.028;2022-12-18T08:33:32;102511.59;;;-6.80;93.66
71504;BME280;59323;50.874;7.028;2022-12-18T08:35:59;102515.84;;;-6.65;93.72
71504;BME280;59323;50.874;7.028;2022-12-18T08:38:24;102509.72;;;-6.53;93.89
71504;BME280;59323;50.874;7.028;2022-12-18T08:40:58;102507.50;;;-6.43;93.68
71504;BME280;59323;50.874;7.028;2022-12-18T08:43:24;102509.50;;;-6.31;93.25
71504;BME280;59323;50.874;7.028;2022-12-18T08:46:08;102506.81;;;-6.18;93.08
71504;BME280;59323;50.874;7.028;2022-12-18T08:48:33;102511.25;;;-6.05;93.00
71504;BME280;59323;50.874;7.028;2022-12-18T08:51:00;102513.38;;;-5.83;92.50
71504;BME280;59323;50.874;7.028;2022-12-18T08:53:26;102515.28;;;-5.58;92.14
71504;BME280;59323;50.874;7.028;2022-12-18T08:55:52;102505.16;;;-5.36;91.46
71504;BME280;59323;50.874;7.028;2022-12-18T08:58:17;102496.50;;;-5.19;90.61
71504;BME280;59323;50.874;7.028;2022-12-18T09:00:43;102497.34;;;-5.00;89.79
71504;BME280;59323;50.874;7.028;2022-12-18T09:03:16;102492.31;;;-4.83;88.80
71504;BME280;59323;50.874;7.028;2022-12-18T09:05:42;102492.56;;;-4.66;88.05
71504;BME280;59323;50.874;7.028;2022-12-18T09:08:08;102488.59;;;-4.57;88.43
71504;BME280;59323;50.874;7.028;2022-12-18T09:10:34;102494.38;;;-4.42;87.09
71504;BME280;59323;50.874;7.028;2022-12-18T09:13:06;102491.06;;;-4.37;86.84
71504;BME280;59323;50.874;7.028;2022-12-18T09:15:31;102486.50;;;-4.30;86.47
71504;BME280;59323;50.874;7.028;2022-12-18T09:17:56;102498.19;;;-4.20;86.24
71504;BME280;59323;50.874;7.028;2022-12-18T09:20:22;102504.25;;;-4.12;85.47
71504;BME280;59323;50.874;7.028;2022-12-18T09:22:47;102509.69;;;-4.07;85.06
71504;BME280;59323;50.874;7.028;2022-12-18T09:25:12;102500.84;;;-4.01;84.94
71504;BME280;59323;50.874;7.028;2022-12-18T09:27:38;102502.81;;;-3.97;85.19
71504;BME280;59323;50.874;7.028;2022-12-18T09:30:04;102488.88;;;-3.92;85.04
71504;BME280;59323;50.874;7.028;2022-12-18T09:32:30;102489.63;;;-3.85;84.75
71504;BME280;59323;50.874;7.028;2022-12-18T09:34:55;102488.28;;;-3.76;85.04
71504;BME280;59323;50.874;7.028;2022-12-18T09:37:21;102467.75;;;-3.69;84.25
71504;BME280;59323;50.874;7.028;2022-12-18T09:39:46;102470.31;;;-3.62;84.47
71504;BME280;59323;50.874;7.028;2022-12-18T09:42:21;102474.50;;;-3.55;84.47
71504;BME280;59323;50.874;7.028;2022-12-18T09:44:53;102478.66;;;-3.47;84.51
71504;BME280;59323;50.874;7.028;2022-12-18T09:47:27;102464.13;;;-3.44;83.76
71504;BME280;59323;50.874;7.028;2022-12-18T09:49:57;102462.63;;;-3.40;84.36
71504;BME280;59323;50.874;7.028;2022-12-18T09:52:42;102455.00;;;-3.37;83.67
71504;BME280;59323;50.874;7.028;2022-12-18T09:55:11;102450.50;;;-3.36;83.70
71504;BME280;59323;50.874;7.028;2022-12-18T09:57:44;102456.53;;;-3.29;83.44
71504;BME280;59323;50.874;7.028;2022-12-18T10:00:19;102455.16;;;-3.20;82.11
71504;BME280;59323;50.874;7.028;2022-12-18T10:02:46;102447.19;;;-3.20;82.88
71504;BME280;59323;50.874;7.028;2022-12-18T10:05:17;102443.03;;;-3.16;83.07
71504;BME280;59323;50.874;7.028;2022-12-18T10:08:03;102448.00;;;-3.08;82.45
71504;BME280;59323;50.874;7.028;2022-12-18T10:13:04;102440.25;;;-2.98;81.70
71504;BME280;59323;50.874;7.028;2022-12-18T10:15:58;102442.81;;;-2.91;80.90
71504;BME280;59323;50.874;7.028;2022-12-18T10:21:28;102430.19;;;-2.84;80.34
71504;BME280;59323;50.874;7.028;2022-12-18T10:26:41;102430.53;;;-2.69;80.46
71504;BME280;59323;50.874;7.028;2022-12-18T10:29:15;102422.66;;;-2.64;80.54
71504;BME280;59323;50.874;7.028;2022-12-18T10:31:40;102419.19;;;-2.52;80.71
71504;BME280;59323;50.874;7.028;2022-12-18T10:34:11;102425.78;;;-2.55;80.68
71504;BME280;59323;50.874;7.028;2022-12-18T10:36:40;102437.69;;;-2.46;80.33
71504;BME280;59323;50.874;7.028;2022-12-18T10:39:28;102418.34;;;-2.41;79.47
71504;BME280;59323;50.874;7.028;2022-12-18T10:42:16;102416.94;;;-2.32;79.54
71504;BME280;59323;50.874;7.028;2022-12-18T10:44:44;102405.81;;;-2.29;78.28
71504;BME280;59323;50.874;7.028;2022-12-18T10:47:18;102417.13;;;-2.22;78.44
71504;BME280;59323;50.874;7.028;2022-12-18T10:49:52;102409.13;;;-2.22;77.87
71504;BME280;59323;50.874;7.028;2022-12-18T10:52:22;102418.97;;;-2.22;78.39
71504;BME280;59323;50.874;7.028;2022-12-18T10:54:59;102406.00;;;-2.19;78.26
71504;BME280;59323;50.874;7.028;2022-12-18T10:57:34;102406.56;;;-2.17;78.02
71504;BME280;59323;50.874;7.028;2022-12-18T11:00:33;102391.16;;;-2.15;77.59
71504;BME280;59323;50.874;7.028;2022-12-18T11:03:01;102385.84;;;-2.15;77.74
71504;BME280;59323;50.874;7.028;2022-12-18T11:05:32;102387.06;;;-2.06;77.08
71504;BME280;59323;50.874;7.028;2022-12-18T11:07:59;102396.09;;;-2.07;77.05
71504;BME280;59323;50.874;7.028;2022-12-18T11:10:33;102384.88;;;-2.09;76.13
71504;BME280;59323;50.874;7.028;2022-12-18T11:13:18;102377.81;;;-2.03;76.93
71504;BME280;59323;50.874;7.028;2022-12-18T11:15:44;102399.59;;;-2.06;76.98
71504;BME280;59323;50.874;7.028;2022-12-18T11:18:34;102386.25;;;-2.06;76.78
71504;BME280;59323;50.874;7.028;2022-12-18T11:23:28;102389.16;;;-2.08;76.29
71504;BME280;59323;50.874;7.028;2022-12-18T11:25:58;102391.34;;;-2.05;76.09
71504;BME280;59323;50.874;7.028;2022-12-18T11:28:46;102399.69;;;-2.01;77.23
71504;BME280;59323;50.874;7.028;2022-12-18T11:31:26;102385.22;;;-2.05;77.04
71504;BME280;59323;50.874;7.028;2022-12-18T11:36:34;102377.00;;;-2.04;76.53
71504;BME280;59323;50.874;7.028;2022-12-18T11:39:12;102377.00;;;-2.04;77.08
71504;BME280;59323;50.874;7.028;2022-12-18T11:41:52;102369.56;;;-2.02;76.78
71504;BME280;59323;50.874;7.028;2022-12-18T11:44:41;102375.69;;;-2.01;77.42
71504;BME280;59323;50.874;7.028;2022-12-18T11:47:19;102375.13;;;-2.03;77.26
71504;BME280;59323;50.874;7.028;2022-12-18T11:49:49;102371.66;;;-2.04;77.87
71504;BME280;59323;50.874;7.028;2022-12-18T11:52:24;102379.97;;;-2.00;77.44
71504;BME280;59323;50.874;7.028;2022-12-18T11:54:52;102369.31;;;-2.00;76.79
71504;BME280;59323;50.874;7.028;2022-12-18T11:57:35;102357.63;;;-1.99;77.48
71504;BME280;59323;50.874;7.028;2022-12-18T12:05:33;102347.94;;;-2.05;77.79
71504;BME280;59323;50.874;7.028;2022-12-18T12:14:03;102341.47;;;-2.09;77.48
71504;BME280;59323;50.874;7.028;2022-12-18T12:33:26;102303.94;;;-2.08;77.36
71504;BME280;59323;50.874;7.028;2022-12-18T12:35:49;102298.28;;;-2.11;77.21
71504;BME280;59323;50.874;7.028;2022-12-18T12:38:24;102302.91;;;-2.07;77.26
71504;BME280;59323;50.874;7.028;2022-12-18T12:40:56;102297.56;;;-2.07;76.72
71504;BME280;59323;50.874;7.028;2022-12-18T12:43:38;102291.19;;;-2.06;77.20
71504;BME280;59323;50.874;7.028;2022-12-18T12:46:09;102295.41;;;-2.10;77.79
71504;BME280;59323;50.874;7.028;2022-12-18T12:48:50;102305.81;;;-2.08;77.73
71504;BME280;59323;50.874;7.028;2022-12-18T12:51:23;102304.66;;;-2.12;76.94
71504;BME280;59323;50.874;7.028;2022-12-18T12:53:49;102309.28;;;-2.08;77.10
71504;BME280;59323;50.874;7.028;2022-12-18T12:56:17;102310.41;;;-2.04;77.28
71504;BME280;59323;50.874;7.028;2022-12-18T12:59:08;102291.19;;;-2.06;78.18
71504;BME280;59323;50.874;7.028;2022-12-18T13:04:30;102294.91;;;-2.07;77.63
71504;BME280;59323;50.874;7.028;2022-12-18T13:07:20;102299.75;;;-2.04;77.70
71504;BME280;59323;50.874;7.028;2022-12-18T13:10:14;102290.63;;;-2.08;77.91
71504;BME280;59323;50.874;7.028;2022-12-18T13:12:57;102276.59;;;-2.03;77.62
71504;BME280;59323;50.874;7.028;2022-12-18T13:25:50;102296.69;;;-1.96;76.72
71504;BME280;59323;50.874;7.028;2022-12-18T13:28:17;102292.66;;;-1.98;77.35
71504;BME280;59323;50.874;7.028;2022-12-18T13:30:51;102285.47;;;-1.98;77.29
71504;BME280;59323;50.874;7.028;2022-12-18T13:40:57;102273.78;;;-1.97;78.00
71504;BME280;59323;50.874;7.028;2022-12-18T13:43:30;102272.50;;;-1.94;76.74
71504;BME280;59323;50.874;7.028;2022-12-18T13:48:33;102267.81;;;-1.87;76.70
71504;BME280;59323;50.874;7.028;2022-12-18T13:51:00;102266.53;;;-1.84;76.80
71504;BME280;59323;50.874;7.028;2022-12-18T13:53:29;102271.06;;;-1.85;76.89
71504;BME280;59323;50.874;7.028;2022-12-18T13:55:56;102265.97;;;-1.86;76.83
71504;BME280;59323;50.874;7.028;2022-12-18T13:58:22;102266.69;;;-1.91;77.15
71504;BME280;59323;50.874;7.028;2022-12-18T14:00:47;102259.66;;;-1.80;76.55
71504;BME280;59323;50.874;7.028;2022-12-18T14:03:23;102262.56;;;-1.82;76.88
71504;BME280;59323;50.874;7.028;2022-12-18T14:06:11;102267.41;;;-1.79;76.50
71504;BME280;59323;50.874;7.028;2022-12-18T14:08:39;102260.47;;;-1.80;76.15
71504;BME280;59323;50.874;7.028;2022-12-18T14:11:06;102254.25;;;-1.85;76.57
71504;BME280;59323;50.874;7.028;2022-12-18T14:13:36;102251.59;;;-1.85;77.03
71504;BME280;59323;50.874;7.028;2022-12-18T14:16:04;102238.75;;;-1.88;77.64
71504;BME280;59323;50.874;7.028;2022-12-18T14:18:52;102234.97;;;-1.93;77.20
71504;BME280;59323;50.874;7.028;2022-12-18T14:21:22;102235.69;;;-1.97;78.09
71504;BME280;59323;50.874;7.028;2022-12-18T14:23:48;102247.72;;;-1.95;77.47
71504;BME280;59323;50.874;7.028;2022-12-18T14:28:46;102235.22;;;-1.94;78.41
71504;BME280;59323;50.874;7.028;2022-12-18T14:31:18;102226.81;;;-2.03;78.61
71504;BME280;59323;50.874;7.028;2022-12-18T14:33:43;102232.94;;;-2.02;78.85